createdAt,value
2023-03-07T00:01:24.150Z,91.71
2023-03-07T00:03:53.276Z,92.19
2023-03-07T00:06:20.359Z,92.31
2023-03-07T00:08:59.776Z,93.00
2023-03-07T00:11:28.008Z,93.36
2023-03-07T00:13:55.863Z,95.51
2023-03-07T00:16:27.082Z,95.95
2023-03-07T00:19:00.704Z,95.76
2023-03-07T00:21:31.564Z,95.75
2023-03-07T00:23:58.507Z,95.39
2023-03-07T00:26:27.205Z,95.46
2023-03-07T00:28:58.815Z,97.44
2023-03-07T00:31:28.203Z,97.82
2023-03-07T00:33:55.183Z,96.65
2023-03-07T00:36:23.978Z,98.73
2023-03-07T00:38:51.580Z,97.82
2023-03-07T00:41:30.266Z,98.16
2023-03-07T00:43:57.250Z,98.10
2023-03-07T00:46:27.616Z,99.44
2023-03-07T00:48:55.669Z,99.68
2023-03-07T00:51:23.962Z,100.00
2023-03-07T00:53:54.514Z,100.00
2023-03-07T00:56:24.885Z,99.70
2023-03-07T00:58:54.417Z,99.77
2023-03-07T01:01:24.718Z,100.00
2023-03-07T01:03:54.684Z,99.89
2023-03-07T01:06:25.128Z,100.00
2023-03-07T01:08:57.235Z,99.28
2023-03-07T01:11:27.986Z,99.24
2023-03-07T01:14:00.577Z,99.94
2023-03-07T01:16:32.703Z,100.00
2023-03-07T01:19:04.480Z,100.00
2023-03-07T01:21:38.109Z,100.00
2023-03-07T01:24:15.591Z,100.00
2023-03-07T01:26:45.814Z,100.00
2023-03-07T01:29:15.722Z,100.00
2023-03-07T01:31:42.653Z,100.00
2023-03-07T01:34:11.872Z,100.00
2023-03-07T01:36:38.812Z,100.00
2023-03-07T01:39:14.018Z,100.00
2023-03-07T01:41:41.416Z,100.00
2023-03-07T01:44:25.829Z,100.00
2023-03-07T01:46:57.328Z,100.00
2023-03-07T01:49:42.929Z,100.00
2023-03-07T01:52:15.714Z,100.00
2023-03-07T01:54:51.400Z,100.00
2023-03-07T01:57:30.989Z,100.00
2023-03-07T02:00:01.931Z,100.00
2023-03-07T02:02:31.436Z,100.00
2023-03-07T02:05:13.050Z,100.00
2023-03-07T02:07:48.671Z,100.00
2023-03-07T02:10:19.774Z,100.00
2023-03-07T02:12:49.625Z,100.00
2023-03-07T02:15:16.842Z,100.00
2023-03-07T02:17:44.713Z,100.00
2023-03-07T02:20:23.905Z,100.00
2023-03-07T02:22:51.453Z,100.00
2023-03-07T02:25:42.696Z,100.00
2023-03-07T02:28:16.256Z,100.00
2023-03-07T02:31:02.409Z,100.00
2023-03-07T02:33:31.973Z,100.00
2023-03-07T02:36:07.273Z,100.00
2023-03-07T02:38:39.873Z,100.00
2023-03-07T02:41:11.424Z,100.00
2023-03-07T02:43:38.616Z,100.00
2023-03-07T02:46:05.847Z,100.00
2023-03-07T02:48:37.879Z,100.00
2023-03-07T02:51:04.910Z,100.00
2023-03-07T02:53:32.098Z,100.00
2023-03-07T02:56:01.394Z,100.00
2023-03-07T02:58:30.496Z,100.00
2023-03-07T03:00:57.344Z,100.00
2023-03-07T03:03:26.694Z,100.00
2023-03-07T03:05:53.623Z,100.00
2023-03-07T03:08:24.997Z,100.00
2023-03-07T03:10:57.859Z,100.00
2023-03-07T03:13:25.231Z,100.00
2023-03-07T03:15:57.205Z,100.00
2023-03-07T03:18:30.541Z,100.00
2023-03-07T03:20:57.786Z,100.00
2023-03-07T03:23:30.810Z,100.00
2023-03-07T03:26:07.685Z,100.00
2023-03-07T03:28:39.469Z,100.00
2023-03-07T03:31:15.007Z,100.00
2023-03-07T03:33:44.993Z,100.00
2023-03-07T03:36:17.606Z,100.00
2023-03-07T03:38:48.026Z,100.00
2023-03-07T03:41:19.987Z,100.00
2023-03-07T03:43:47.161Z,100.00
2023-03-07T03:46:19.392Z,100.00
2023-03-07T03:49:00.900Z,100.00
2023-03-07T03:51:30.727Z,100.00
2023-03-07T03:54:02.606Z,100.00
2023-03-07T03:56:30.321Z,100.00
2023-03-07T03:58:57.775Z,100.00
2023-03-07T04:01:27.423Z,100.00
2023-03-07T04:03:55.447Z,100.00
2023-03-07T04:06:34.097Z,100.00
2023-03-07T04:09:05.504Z,100.00
2023-03-07T04:11:35.874Z,100.00
2023-03-07T04:14:08.378Z,100.00
2023-03-07T04:16:35.345Z,100.00
2023-03-07T04:19:04.881Z,100.00
2023-03-07T04:21:31.711Z,100.00
2023-03-07T04:23:58.622Z,100.00
2023-03-07T04:26:25.894Z,100.00
2023-03-07T04:28:52.965Z,100.00
2023-03-07T04:31:23.214Z,100.00
2023-03-07T04:33:54.712Z,100.00
2023-03-07T04:36:22.878Z,100.00
2023-03-07T04:38:50.671Z,100.00
2023-03-07T04:41:23.601Z,100.00
2023-03-07T04:43:50.652Z,99.94
2023-03-07T04:46:19.126Z,99.42
2023-03-07T04:48:47.186Z,98.71
2023-03-07T04:52:32.640Z,99.30
2023-03-07T04:54:59.517Z,100.00
2023-03-07T04:57:26.672Z,99.07
2023-03-07T04:59:53.579Z,99.30
2023-03-07T05:02:20.480Z,99.29
2023-03-07T05:04:49.659Z,99.64
2023-03-07T05:07:18.479Z,98.58
2023-03-07T05:09:45.698Z,98.87
2023-03-07T05:12:17.313Z,98.46
2023-03-07T05:14:44.221Z,98.43
2023-03-07T05:17:11.382Z,97.51
2023-03-07T05:19:38.382Z,97.22
2023-03-07T05:22:05.310Z,97.11
2023-03-07T05:24:35.296Z,96.97
2023-03-07T05:27:02.706Z,96.65
2023-03-07T05:29:29.748Z,96.34
2023-03-07T05:31:58.754Z,95.80
2023-03-07T05:34:30.413Z,94.99
2023-03-07T05:36:58.337Z,94.96
2023-03-07T05:39:29.819Z,94.61
2023-03-07T05:41:56.679Z,94.44
2023-03-07T05:44:23.764Z,94.03
2023-03-07T05:46:50.757Z,93.87
2023-03-07T05:49:17.685Z,93.25
2023-03-07T05:51:47.155Z,92.42
2023-03-07T05:54:16.773Z,92.74
2023-03-07T05:56:47.210Z,92.32
2023-03-07T05:59:17.023Z,92.42
2023-03-07T06:01:45.982Z,92.83
2023-03-07T06:04:12.985Z,92.27
2023-03-07T06:06:42.112Z,91.28
2023-03-07T06:09:08.995Z,90.50
2023-03-07T06:11:35.896Z,90.23
2023-03-07T06:14:05.312Z,88.89
2023-03-07T06:16:32.423Z,88.41
2023-03-07T06:18:59.273Z,89.03
2023-03-07T06:21:26.239Z,89.30
2023-03-07T06:23:53.193Z,88.93
2023-03-07T06:26:22.222Z,88.70
2023-03-07T06:28:49.346Z,88.85
2023-03-07T06:31:18.914Z,88.62
2023-03-07T06:33:48.955Z,87.77
2023-03-07T06:36:18.819Z,87.32
2023-03-07T06:38:48.511Z,86.53
2023-03-07T06:41:20.067Z,85.88
2023-03-07T06:43:51.146Z,86.36
2023-03-07T06:46:23.529Z,83.42
2023-03-07T06:48:55.727Z,82.51
2023-03-07T06:51:25.867Z,81.94
2023-03-07T06:53:52.713Z,81.61
2023-03-07T06:56:19.649Z,79.92
2023-03-07T06:58:46.485Z,81.26
2023-03-07T07:01:18.994Z,82.26
2023-03-07T07:03:49.076Z,82.66
2023-03-07T07:06:21.015Z,82.70
2023-03-07T07:08:47.992Z,83.37
2023-03-07T07:11:14.903Z,83.46
2023-03-07T07:13:41.933Z,82.88
2023-03-07T07:16:14.160Z,83.94
2023-03-07T07:18:43.305Z,83.72
2023-03-07T07:21:10.524Z,83.08
2023-03-07T07:23:37.798Z,82.68
2023-03-07T07:26:04.909Z,82.07
2023-03-07T07:28:31.915Z,81.95
2023-03-07T07:30:59.493Z,81.00
2023-03-07T07:33:26.609Z,80.97
2023-03-07T07:35:56.436Z,80.34
2023-03-07T07:38:25.785Z,80.08
2023-03-07T07:40:56.186Z,79.81
2023-03-07T07:43:23.272Z,78.73
2023-03-07T07:45:50.243Z,78.62
2023-03-07T07:48:17.405Z,78.51
2023-03-07T07:50:47.291Z,78.81
2023-03-07T07:53:18.320Z,78.34
2023-03-07T07:55:45.888Z,78.87
2023-03-07T07:58:12.925Z,79.67
2023-03-07T08:00:39.819Z,78.99
2023-03-07T08:03:07.176Z,79.48
2023-03-07T08:05:34.215Z,79.41
2023-03-07T08:08:03.378Z,78.10
2023-03-07T08:10:35.642Z,77.70
2023-03-07T08:13:03.231Z,77.67
2023-03-07T08:15:32.641Z,77.69
2023-03-07T08:17:59.531Z,77.30
2023-03-07T08:20:26.408Z,75.95
2023-03-07T08:22:53.352Z,74.70
2023-03-07T08:25:26.871Z,76.43
2023-03-07T08:27:55.362Z,76.41
2023-03-07T08:30:28.868Z,75.08
2023-03-07T08:32:56.924Z,74.89
2023-03-07T08:35:25.832Z,74.01
2023-03-07T08:38:00.691Z,73.19
2023-03-07T08:40:31.398Z,71.74
2023-03-07T08:43:05.919Z,69.05
2023-03-07T08:45:36.047Z,68.93
2023-03-07T08:48:03.008Z,70.64
2023-03-07T08:50:30.040Z,71.30
2023-03-07T08:52:57.761Z,70.70
2023-03-07T08:55:24.747Z,71.39
2023-03-07T08:57:51.662Z,70.66
2023-03-07T09:00:19.558Z,71.20
2023-03-07T09:02:47.035Z,70.66
2023-03-07T09:05:16.569Z,71.99
2023-03-07T09:07:45.709Z,71.36
2023-03-07T09:10:12.763Z,71.47
2023-03-07T09:12:42.023Z,71.33
2023-03-07T09:15:09.902Z,70.22
2023-03-07T09:17:36.978Z,70.17
2023-03-07T09:20:09.436Z,69.41
2023-03-07T09:22:38.744Z,68.54
2023-03-07T09:25:06.451Z,68.68
2023-03-07T09:27:36.427Z,69.78
2023-03-07T09:30:06.887Z,71.15
2023-03-07T09:32:36.595Z,70.74
2023-03-07T09:35:04.120Z,70.36
2023-03-07T09:37:31.201Z,70.23
2023-03-07T09:39:58.153Z,69.54
2023-03-07T09:43:04.550Z,70.33
2023-03-07T09:46:13.510Z,71.24
2023-03-07T09:48:43.366Z,70.74
2023-03-07T09:51:19.297Z,70.55
2023-03-07T09:54:00.532Z,71.00
2023-03-07T09:56:37.982Z,69.06
2023-03-07T09:59:36.051Z,69.52
2023-03-07T10:02:41.627Z,66.82
2023-03-07T10:05:31.660Z,64.80
2023-03-07T10:08:00.980Z,62.23
2023-03-07T10:10:40.138Z,62.50
2023-03-07T10:13:44.762Z,61.18
2023-03-07T10:16:24.623Z,62.12
2023-03-07T10:19:17.547Z,62.88
2023-03-07T10:22:04.097Z,62.13
2023-03-07T10:24:52.470Z,60.81
2023-03-07T10:27:23.428Z,60.78
2023-03-07T10:29:54.281Z,60.62
2023-03-07T10:32:43.763Z,57.73
2023-03-07T10:35:45.009Z,57.14
2023-03-07T10:38:45.286Z,53.92
2023-03-07T10:41:21.474Z,50.46
2023-03-07T10:43:51.170Z,45.16
2023-03-07T10:46:27.328Z,44.77
2023-03-07T10:49:03.483Z,44.75
2023-03-07T10:51:59.070Z,47.13
2023-03-07T10:54:37.731Z,46.47
2023-03-07T10:57:16.617Z,49.32
2023-03-07T10:59:48.723Z,48.70
2023-03-07T11:02:46.541Z,50.99
2023-03-07T11:05:36.722Z,62.37
2023-03-07T11:08:28.900Z,71.35
2023-03-07T11:10:59.773Z,73.94
2023-03-07T11:13:27.651Z,75.54
2023-03-07T11:16:31.799Z,76.00
2023-03-07T11:19:04.254Z,74.11
2023-03-07T11:21:35.280Z,71.90
2023-03-07T11:24:26.117Z,70.63
2023-03-07T11:26:59.130Z,69.04
2023-03-07T11:29:29.183Z,67.71
2023-03-07T11:31:59.305Z,65.56
2023-03-07T11:34:50.135Z,63.37
2023-03-07T11:37:39.392Z,60.05
2023-03-07T11:40:23.959Z,55.26
2023-03-07T11:43:04.857Z,50.11
2023-03-07T11:45:35.145Z,46.48
2023-03-07T11:48:27.938Z,46.57
2023-03-07T11:50:59.253Z,46.17
2023-03-07T11:53:53.733Z,47.71
2023-03-07T11:56:38.189Z,48.05
2023-03-07T11:59:23.892Z,48.56
2023-03-07T12:01:57.289Z,48.81
2023-03-07T12:05:07.163Z,50.73
2023-03-07T12:08:13.823Z,56.97
2023-03-07T12:11:13.231Z,62.22
2023-03-07T12:13:59.181Z,62.26
2023-03-07T12:16:42.348Z,61.85
2023-03-07T12:19:36.364Z,62.04
2023-03-07T12:22:31.887Z,59.99
2023-03-07T12:25:18.758Z,57.56
2023-03-07T12:28:18.141Z,57.26
2023-03-07T12:31:07.304Z,54.16
2023-03-07T12:33:54.449Z,54.24
2023-03-07T12:36:44.928Z,54.00
2023-03-07T12:39:49.811Z,53.03
2023-03-07T12:42:30.457Z,51.08
2023-03-07T12:45:24.395Z,50.22
2023-03-07T12:48:02.990Z,48.70
2023-03-07T12:50:47.113Z,48.08
2023-03-07T12:53:31.924Z,47.40
2023-03-07T12:56:44.844Z,48.53
2023-03-07T12:59:15.906Z,47.42
2023-03-07T13:02:19.890Z,47.71
2023-03-07T13:04:46.863Z,45.87
2023-03-07T13:07:18.526Z,45.93
2023-03-07T13:09:51.182Z,44.82
2023-03-07T13:12:22.602Z,43.16
2023-03-07T13:14:55.463Z,42.86
2023-03-07T13:17:31.782Z,40.02
2023-03-07T13:20:04.919Z,40.92
2023-03-07T13:22:31.864Z,39.84
2023-03-07T13:25:27.919Z,36.66
2023-03-07T13:28:02.567Z,35.53
2023-03-07T13:30:36.352Z,34.73
2023-03-07T13:33:04.444Z,32.83
2023-03-07T13:35:31.543Z,34.60
2023-03-07T13:38:35.948Z,34.77
2023-03-07T13:41:07.975Z,34.01
2023-03-07T13:43:57.806Z,32.77
2023-03-07T13:46:43.101Z,32.40
2023-03-07T13:49:10.348Z,30.50
2023-03-07T13:51:39.834Z,30.60
2023-03-07T13:54:13.651Z,29.17
2023-03-07T13:56:42.974Z,29.23
2023-03-07T13:59:09.776Z,30.16
2023-03-07T14:01:40.640Z,30.23
2023-03-07T14:04:39.921Z,29.01
2023-03-07T14:07:24.906Z,30.79
2023-03-07T14:10:00.339Z,33.53
2023-03-07T14:13:24.916Z,33.94
2023-03-07T14:16:37.462Z,30.07
2023-03-07T14:19:33.754Z,27.55
2023-03-07T14:22:18.994Z,27.65
2023-03-07T14:25:10.788Z,26.64
2023-03-07T14:28:27.045Z,27.09
2023-03-07T14:31:05.018Z,25.82
2023-03-07T14:33:42.033Z,25.31
2023-03-07T14:36:37.739Z,25.68
2023-03-07T14:39:06.635Z,25.15
2023-03-07T14:42:07.256Z,26.93
2023-03-07T14:45:30.778Z,30.29
2023-03-07T14:48:03.499Z,31.86
2023-03-07T14:50:32.477Z,33.57
2023-03-07T14:53:19.128Z,33.41
2023-03-07T14:55:53.918Z,35.26
2023-03-07T14:58:29.800Z,36.39
2023-03-07T15:01:14.520Z,36.43
2023-03-07T15:03:54.024Z,36.71
2023-03-07T15:06:28.445Z,35.47
2023-03-07T15:09:01.381Z,33.10
2023-03-07T15:11:40.242Z,33.60
2023-03-07T15:14:18.517Z,33.87
2023-03-07T15:17:01.945Z,35.49
2023-03-07T15:20:00.517Z,36.51
2023-03-07T15:22:39.537Z,36.16
2023-03-07T15:25:17.361Z,37.92
2023-03-07T15:27:44.441Z,38.35
2023-03-07T15:30:26.155Z,38.38
2023-03-07T15:33:23.692Z,43.08
2023-03-07T15:36:15.527Z,49.40
2023-03-07T15:39:13.697Z,53.11
2023-03-07T15:41:43.063Z,54.69
2023-03-07T15:44:12.879Z,53.66
2023-03-07T15:46:46.072Z,53.87
2023-03-07T15:50:07.144Z,54.49
2023-03-07T15:52:38.416Z,53.87
2023-03-07T15:55:17.408Z,54.15
2023-03-07T15:58:05.060Z,54.08
2023-03-07T16:00:41.546Z,53.99
2023-03-07T16:03:27.514Z,53.95
2023-03-07T16:05:57.366Z,52.61
2023-03-07T16:08:27.688Z,52.29
2023-03-07T16:11:09.370Z,53.23
2023-03-07T16:13:43.113Z,53.21
2023-03-07T16:16:13.263Z,52.41
2023-03-07T16:18:42.300Z,54.15
2023-03-07T16:21:16.743Z,53.27
2023-03-07T16:23:44.674Z,54.07
2023-03-07T16:26:18.618Z,52.83
2023-03-07T16:28:45.600Z,53.33
2023-03-07T16:31:17.407Z,52.08
2023-03-07T16:33:45.957Z,52.12
2023-03-07T16:36:20.720Z,51.94
2023-03-07T16:38:50.202Z,52.90
2023-03-07T16:41:20.060Z,52.45
2023-03-07T16:43:54.223Z,52.52
2023-03-07T16:46:21.741Z,52.51
2023-03-07T16:48:48.686Z,52.79
2023-03-07T16:51:22.186Z,52.82
2023-03-07T16:53:51.108Z,52.83
2023-03-07T16:56:36.918Z,52.92
2023-03-07T16:59:08.296Z,52.76
2023-03-07T17:01:35.312Z,53.47
2023-03-07T17:04:02.309Z,53.14
2023-03-07T17:06:38.918Z,53.44
2023-03-07T17:09:09.361Z,53.01
2023-03-07T17:11:44.358Z,52.87
2023-03-07T17:14:19.051Z,53.91
2023-03-07T17:16:51.662Z,53.68
2023-03-07T17:19:33.027Z,53.68
2023-03-07T17:22:05.429Z,53.79
2023-03-07T17:24:34.548Z,54.95
2023-03-07T17:27:03.576Z,54.50
2023-03-07T17:29:50.777Z,55.10
2023-03-07T17:32:20.937Z,53.74
2023-03-07T17:34:50.287Z,52.68
2023-03-07T17:37:21.998Z,54.34
2023-03-07T17:39:54.377Z,55.65
2023-03-07T17:42:21.289Z,56.23
2023-03-07T17:44:48.172Z,57.56
2023-03-07T17:47:15.073Z,58.00
2023-03-07T17:49:46.649Z,58.24
2023-03-07T17:52:16.689Z,58.91
2023-03-07T17:54:46.391Z,58.99
2023-03-07T17:57:13.277Z,59.68
2023-03-07T17:59:42.711Z,59.04
2023-03-07T18:02:16.638Z,60.29
2023-03-07T18:04:46.023Z,58.52
2023-03-07T18:07:13.347Z,58.86
2023-03-07T18:09:45.285Z,59.14
2023-03-07T18:12:21.812Z,59.23
2023-03-07T18:14:53.395Z,59.55
2023-03-07T18:17:21.963Z,59.90
2023-03-07T18:19:48.850Z,59.68
2023-03-07T18:22:20.214Z,59.77
2023-03-07T18:24:51.876Z,60.66
2023-03-07T18:27:21.056Z,60.68
2023-03-07T18:29:48.133Z,60.95
2023-03-07T18:32:15.221Z,61.12
2023-03-07T18:34:42.212Z,61.76
2023-03-07T18:37:11.326Z,61.42
2023-03-07T18:39:38.392Z,61.46
2023-03-07T18:42:06.242Z,61.43
2023-03-07T18:44:39.433Z,61.03
2023-03-07T18:47:07.042Z,61.77
2023-03-07T18:49:34.614Z,61.09
2023-03-07T18:52:01.622Z,61.28
2023-03-07T18:54:28.676Z,61.87
2023-03-07T18:56:58.083Z,61.42
2023-03-07T18:59:28.311Z,61.50
2023-03-07T19:01:55.354Z,61.22
2023-03-07T19:04:24.661Z,61.64
2023-03-07T19:06:55.331Z,61.89
2023-03-07T19:09:26.151Z,62.62
2023-03-07T19:11:55.543Z,62.52
2023-03-07T19:14:24.633Z,62.86
2023-03-07T19:16:51.722Z,63.50
2023-03-07T19:19:18.717Z,63.79
2023-03-07T19:21:48.070Z,64.45
2023-03-07T19:24:15.152Z,64.06
2023-03-07T19:26:43.463Z,64.20
2023-03-07T19:29:12.162Z,65.09
2023-03-07T19:31:44.350Z,66.53
2023-03-07T19:34:11.677Z,66.16
2023-03-07T19:36:42.169Z,66.83
2023-03-07T19:39:14.512Z,67.82
2023-03-07T19:41:41.868Z,67.32
2023-03-07T19:44:12.204Z,67.92
2023-03-07T19:46:46.508Z,67.22
2023-03-07T19:49:15.944Z,68.01
2023-03-07T19:51:43.060Z,68.92
2023-03-07T19:54:14.018Z,69.02
2023-03-07T19:56:42.684Z,68.38
2023-03-07T19:59:12.444Z,69.19
2023-03-07T20:01:39.673Z,68.71
2023-03-07T20:04:07.734Z,68.95
2023-03-07T20:06:37.389Z,69.18
2023-03-07T20:09:04.502Z,68.33
2023-03-07T20:11:36.094Z,69.99
2023-03-07T20:14:05.409Z,69.57
2023-03-07T20:16:34.030Z,69.76
2023-03-07T20:19:08.580Z,69.51
2023-03-07T20:21:37.429Z,70.43
2023-03-07T20:24:05.270Z,70.23
2023-03-07T20:26:36.514Z,69.20
2023-03-07T20:29:06.371Z,70.00
2023-03-07T20:31:33.922Z,70.52
2023-03-07T20:34:03.580Z,69.65
2023-03-07T20:36:35.947Z,70.61
2023-03-07T20:39:08.088Z,71.59
2023-03-07T20:41:35.817Z,70.78
2023-03-07T20:44:06.585Z,70.93
2023-03-07T20:46:37.904Z,70.23
2023-03-07T20:49:05.576Z,71.06
2023-03-07T20:51:36.079Z,70.26
2023-03-07T20:54:13.533Z,70.25
2023-03-07T20:56:44.101Z,71.35
2023-03-07T20:59:21.541Z,70.94
2023-03-07T21:01:49.696Z,71.73
2023-03-07T21:04:21.012Z,72.50
2023-03-07T21:06:49.173Z,72.07
2023-03-07T21:09:18.142Z,71.72
2023-03-07T21:11:51.792Z,71.97
2023-03-07T21:14:20.535Z,71.85
2023-03-07T21:16:54.206Z,72.05
2023-03-07T21:19:21.732Z,72.25
2023-03-07T21:21:51.888Z,72.42
2023-03-07T21:24:21.195Z,73.39
2023-03-07T21:26:48.311Z,75.07
2023-03-07T21:29:16.111Z,74.45
2023-03-07T21:31:43.196Z,74.44
2023-03-07T21:34:13.769Z,74.91
2023-03-07T21:36:40.739Z,75.86
2023-03-07T21:39:11.107Z,75.59
2023-03-07T21:41:41.086Z,76.83
2023-03-07T21:44:09.444Z,76.95
2023-03-07T21:46:39.427Z,77.40
2023-03-07T21:49:08.650Z,77.39
2023-03-07T21:51:35.555Z,78.33
2023-03-07T21:54:02.608Z,78.01
2023-03-07T21:56:29.798Z,78.29
2023-03-07T21:58:57.063Z,78.42
2023-03-07T22:01:28.947Z,78.53
2023-03-07T22:04:00.990Z,78.76
2023-03-07T22:06:33.657Z,79.77
2023-03-07T22:09:03.195Z,79.81
2023-03-07T22:11:32.638Z,79.21
2023-03-07T22:13:59.717Z,79.41
2023-03-07T22:16:26.796Z,79.85
2023-03-07T22:18:59.326Z,80.24
2023-03-07T22:21:27.077Z,79.89
2023-03-07T22:24:01.237Z,79.03
2023-03-07T22:26:31.018Z,80.42
2023-03-07T22:29:02.778Z,81.78
2023-03-07T22:31:34.868Z,82.29
2023-03-07T22:34:01.997Z,82.02
2023-03-07T22:36:29.117Z,82.24
2023-03-07T22:38:56.569Z,82.74
2023-03-07T22:41:24.785Z,83.19
2023-03-07T22:43:54.096Z,83.34
2023-03-07T22:46:24.381Z,82.57
2023-03-07T22:48:55.651Z,82.94
2023-03-07T22:51:26.175Z,82.86
2023-03-07T22:53:54.923Z,82.56
2023-03-07T22:56:27.461Z,83.04
2023-03-07T22:58:57.054Z,84.13
2023-03-07T23:01:27.586Z,83.88
2023-03-07T23:03:56.851Z,84.57
2023-03-07T23:06:27.812Z,84.60
2023-03-07T23:08:59.599Z,84.02
2023-03-07T23:11:29.460Z,83.38
2023-03-07T23:13:59.569Z,83.90
2023-03-07T23:16:29.474Z,83.50
2023-03-07T23:19:00.151Z,82.98
2023-03-07T23:21:30.351Z,83.28
2023-03-07T23:24:00.805Z,82.88
2023-03-07T23:26:31.508Z,83.55
2023-03-07T23:28:59.168Z,83.83
2023-03-07T23:31:36.799Z,83.82
2023-03-07T23:34:08.641Z,84.52
2023-03-07T23:36:35.918Z,84.05
2023-03-07T23:39:05.827Z,84.83
2023-03-07T23:41:32.764Z,85.10
2023-03-07T23:44:03.890Z,85.34
2023-03-07T23:46:31.406Z,85.13
2023-03-07T23:48:59.125Z,85.34
2023-03-07T23:51:26.476Z,85.91
2023-03-07T23:53:53.548Z,86.01
2023-03-07T23:56:20.706Z,85.70
2023-03-07T23:58:56.410Z,85.00
